ITY1177 LIML-LICA
Flight info
| Callsign | ITY1177 |
|---|---|
| Flight time | 1h 21m |
| Altitude | 37000 |
| Route | ABSEM6AXLOGDI7A/35 LOGDI DCT LOMED DCT TEA DCT EVINO/N0323F190 M620 ARBUM |
| Aircraft | A20N/M-SDE2E3FGHIRWXY/LB1 |
Departure
| Time | 2026-04-20 19:55 |
|---|---|
| Airport | Milano Linate Airport (LIML) |
Arrival
| Time | 2026-04-20 21:16 |
|---|---|
| Airport | Lamezia Terme Sant'Eufemia International Airport (LICA) |
| Time | Latitude | Longitude | Altitude | Speed | Heading |
|---|---|---|---|---|---|
| 2026-04-20 19:26 | 45.45651 | 9.27895 | 362 ft | 0 kts | 90° |
| 2026-04-20 19:48 | 45.45651 | 9.27908 | 362 ft | 2 kts | 90° |
| 2026-04-20 19:48 | 45.45649 | 9.27951 | 362 ft | 5 kts | 108° |
| 2026-04-20 19:49 | 45.45602 | 9.27978 | 362 ft | 9 kts | 172° |
| 2026-04-20 19:49 | 45.45530 | 9.27979 | 361 ft | 10 kts | 180° |
| 2026-04-20 19:49 | 45.45443 | 9.27978 | 361 ft | 14 kts | 179° |
| 2026-04-20 19:49 | 45.45344 | 9.27948 | 360 ft | 15 kts | 205° |
| 2026-04-20 19:50 | 45.45241 | 9.27881 | 359 ft | 16 kts | 195° |
| 2026-04-20 19:50 | 45.45122 | 9.27876 | 359 ft | 18 kts | 175° |
| 2026-04-20 19:50 | 45.44987 | 9.27890 | 358 ft | 20 kts | 173° |
| 2026-04-20 19:50 | 45.44849 | 9.27939 | 357 ft | 21 kts | 171° |
| 2026-04-20 19:51 | 45.44700 | 9.27955 | 356 ft | 21 kts | 175° |
| 2026-04-20 19:51 | 45.44550 | 9.27971 | 355 ft | 21 kts | 175° |
| 2026-04-20 19:51 | 45.44398 | 9.27988 | 353 ft | 22 kts | 175° |
| 2026-04-20 19:51 | 45.44243 | 9.28005 | 352 ft | 22 kts | 175° |
| 2026-04-20 19:52 | 45.44088 | 9.28022 | 350 ft | 22 kts | 175° |
| 2026-04-20 19:52 | 45.43930 | 9.28039 | 349 ft | 22 kts | 175° |
| 2026-04-20 19:52 | 45.43772 | 9.28056 | 347 ft | 23 kts | 175° |
| 2026-04-20 19:52 | 45.43613 | 9.28073 | 346 ft | 18 kts | 175° |
| 2026-04-20 19:53 | 45.43511 | 9.28083 | 345 ft | 10 kts | 176° |
| 2026-04-20 19:53 | 45.43453 | 9.28037 | 344 ft | 10 kts | 250° |
| 2026-04-20 19:53 | 45.43443 | 9.27927 | 344 ft | 11 kts | 266° |
| 2026-04-20 19:53 | 45.43442 | 9.27839 | 344 ft | 5 kts | 278° |
| 2026-04-20 19:54 | 45.43478 | 9.27817 | 345 ft | 6 kts | 356° |
| 2026-04-20 19:54 | 45.43674 | 9.27796 | 346 ft | 68 kts | 355° |
| 2026-04-20 19:54 | 45.44422 | 9.27713 | 354 ft | 145 kts | 355° |
| 2026-04-20 19:54 | 45.45542 | 9.27584 | 824 ft | 168 kts | 355° |
| 2026-04-20 19:55 | 45.46700 | 9.27584 | 1695 ft | 168 kts | 4° |
| 2026-04-20 19:55 | 45.47833 | 9.27739 | 2554 ft | 168 kts | 8° |
| 2026-04-20 19:55 | 45.49027 | 9.27954 | 3179 ft | 183 kts | 7° |
| 2026-04-20 19:55 | 45.50299 | 9.28154 | 3963 ft | 189 kts | 7° |
| 2026-04-20 19:56 | 45.51517 | 9.28745 | 4797 ft | 191 kts | 39° |
| 2026-04-20 19:56 | 45.52161 | 9.30357 | 5614 ft | 196 kts | 78° |
| 2026-04-20 19:56 | 45.52019 | 9.32267 | 6406 ft | 202 kts | 111° |
| 2026-04-20 19:56 | 45.51289 | 9.34015 | 7078 ft | 216 kts | 122° |
| 2026-04-20 19:57 | 45.50376 | 9.35854 | 7565 ft | 240 kts | 124° |
| 2026-04-20 19:57 | 45.49391 | 9.37822 | 8250 ft | 255 kts | 124° |
| 2026-04-20 19:57 | 45.48348 | 9.39982 | 8890 ft | 274 kts | 123° |
| 2026-04-20 19:57 | 45.47253 | 9.42264 | 9521 ft | 292 kts | 123° |
| 2026-04-20 19:58 | 45.46091 | 9.44692 | 10320 ft | 304 kts | 123° |
| 2026-04-20 19:58 | 45.44886 | 9.47225 | 11084 ft | 315 kts | 123° |
| 2026-04-20 19:58 | 45.43652 | 9.49822 | 11947 ft | 323 kts | 123° |
| 2026-04-20 19:58 | 45.42399 | 9.52464 | 12832 ft | 329 kts | 124° |
| 2026-04-20 19:59 | 45.41099 | 9.55202 | 13752 ft | 335 kts | 124° |
| 2026-04-20 19:59 | 45.39810 | 9.57916 | 14594 ft | 341 kts | 124° |
| 2026-04-20 19:59 | 45.38442 | 9.60681 | 15417 ft | 347 kts | 129° |
| 2026-04-20 19:59 | 45.36733 | 9.63145 | 16209 ft | 351 kts | 142° |
| 2026-04-20 20:00 | 45.34732 | 9.65124 | 16998 ft | 355 kts | 150° |
| 2026-04-20 20:00 | 45.32605 | 9.66970 | 17748 ft | 361 kts | 152° |
| 2026-04-20 20:00 | 45.30466 | 9.68787 | 18471 ft | 367 kts | 152° |
| 2026-04-20 20:00 | 45.28260 | 9.70669 | 19225 ft | 372 kts | 152° |
| 2026-04-20 20:01 | 45.26034 | 9.72581 | 19990 ft | 376 kts | 152° |
| 2026-04-20 20:01 | 45.23804 | 9.74503 | 20718 ft | 381 kts | 152° |
| 2026-04-20 20:01 | 45.21545 | 9.76457 | 21439 ft | 385 kts | 152° |
| 2026-04-20 20:01 | 45.19264 | 9.78432 | 22156 ft | 389 kts | 152° |
| 2026-04-20 20:02 | 45.16920 | 9.80462 | 22872 ft | 394 kts | 152° |
| 2026-04-20 20:02 | 45.14598 | 9.82472 | 23553 ft | 398 kts | 152° |
| 2026-04-20 20:02 | 45.12219 | 9.84532 | 24257 ft | 402 kts | 152° |
| 2026-04-20 20:02 | 45.09827 | 9.86599 | 24977 ft | 405 kts | 152° |
| 2026-04-20 20:03 | 45.07433 | 9.88666 | 25622 ft | 409 kts | 153° |
| 2026-04-20 20:03 | 45.05004 | 9.90760 | 26238 ft | 414 kts | 153° |
| 2026-04-20 20:03 | 45.02552 | 9.92873 | 26831 ft | 418 kts | 153° |
| 2026-04-20 20:03 | 45.00063 | 9.95015 | 27428 ft | 422 kts | 153° |
| 2026-04-20 20:04 | 44.97538 | 9.97188 | 28004 ft | 426 kts | 153° |
| 2026-04-20 20:04 | 44.95002 | 9.99366 | 28557 ft | 429 kts | 153° |
| 2026-04-20 20:04 | 44.92455 | 10.01551 | 29093 ft | 432 kts | 153° |
| 2026-04-20 20:04 | 44.89854 | 10.03780 | 29587 ft | 436 kts | 153° |
| 2026-04-20 20:05 | 44.87254 | 10.06004 | 30055 ft | 439 kts | 153° |
| 2026-04-20 20:05 | 44.84640 | 10.08239 | 30500 ft | 442 kts | 153° |
| 2026-04-20 20:05 | 44.82017 | 10.10482 | 30906 ft | 446 kts | 153° |
| 2026-04-20 20:05 | 44.79377 | 10.12736 | 31278 ft | 449 kts | 153° |
| 2026-04-20 20:06 | 44.76695 | 10.15023 | 31659 ft | 452 kts | 154° |
| 2026-04-20 20:06 | 44.73988 | 10.17338 | 32008 ft | 456 kts | 152° |
| 2026-04-20 20:06 | 44.71356 | 10.19806 | 32357 ft | 461 kts | 148° |
| 2026-04-20 20:06 | 44.68800 | 10.22546 | 32716 ft | 466 kts | 144° |
| 2026-04-20 20:07 | 44.66314 | 10.25487 | 33071 ft | 469 kts | 143° |
| 2026-04-20 20:07 | 44.63815 | 10.28482 | 33402 ft | 472 kts | 143° |
| 2026-04-20 20:07 | 44.61343 | 10.31447 | 33758 ft | 474 kts | 143° |
| 2026-04-20 20:07 | 44.58847 | 10.34435 | 34186 ft | 473 kts | 143° |
| 2026-04-20 20:08 | 44.56338 | 10.37427 | 34619 ft | 472 kts | 143° |
| 2026-04-20 20:08 | 44.53831 | 10.40408 | 35003 ft | 472 kts | 143° |
| 2026-04-20 20:08 | 44.51340 | 10.43363 | 35354 ft | 471 kts | 143° |
| 2026-04-20 20:08 | 44.48833 | 10.46330 | 35691 ft | 471 kts | 143° |
| 2026-04-20 20:09 | 44.46355 | 10.49259 | 36029 ft | 470 kts | 143° |
| 2026-04-20 20:09 | 44.43855 | 10.52214 | 36402 ft | 469 kts | 143° |
| 2026-04-20 20:09 | 44.41372 | 10.55146 | 36791 ft | 467 kts | 143° |
| 2026-04-20 20:09 | 44.38924 | 10.58032 | 37196 ft | 466 kts | 143° |
| 2026-04-20 20:10 | 44.36455 | 10.60937 | 37514 ft | 467 kts | 143° |
| 2026-04-20 20:10 | 44.33966 | 10.63863 | 37772 ft | 468 kts | 143° |
| 2026-04-20 20:10 | 44.31467 | 10.66800 | 38016 ft | 469 kts | 144° |
| 2026-04-20 20:10 | 44.28968 | 10.69731 | 38255 ft | 470 kts | 143° |
| 2026-04-20 20:11 | 44.26466 | 10.72662 | 38484 ft | 471 kts | 143° |
| 2026-04-20 20:11 | 44.23954 | 10.75603 | 38687 ft | 473 kts | 143° |
| 2026-04-20 20:11 | 44.21440 | 10.78544 | 38883 ft | 474 kts | 143° |
| 2026-04-20 20:12 | 44.16380 | 10.84450 | 38922 ft | 476 kts | 143° |
| 2026-04-20 20:12 | 44.11333 | 10.90330 | 38926 ft | 476 kts | 143° |
| 2026-04-20 20:13 | 44.03714 | 10.99180 | 38945 ft | 476 kts | 143° |
| 2026-04-20 20:13 | 43.98613 | 11.05066 | 38958 ft | 476 kts | 143° |
| 2026-04-20 20:14 | 43.93517 | 11.10912 | 38955 ft | 476 kts | 143° |
| 2026-04-20 20:14 | 43.88411 | 11.16761 | 38950 ft | 477 kts | 143° |
| 2026-04-20 20:15 | 43.83324 | 11.22578 | 38949 ft | 477 kts | 143° |
| 2026-04-20 20:15 | 43.78213 | 11.28411 | 38944 ft | 477 kts | 143° |
| 2026-04-20 20:16 | 43.73089 | 11.34246 | 38943 ft | 477 kts | 143° |
| 2026-04-20 20:16 | 43.68003 | 11.40023 | 38940 ft | 476 kts | 143° |
| 2026-04-20 20:17 | 43.62884 | 11.45821 | 38937 ft | 477 kts | 143° |
| 2026-04-20 20:17 | 43.57762 | 11.51611 | 38936 ft | 476 kts | 143° |
| 2026-04-20 20:18 | 43.52670 | 11.57357 | 38931 ft | 475 kts | 143° |
| 2026-04-20 20:18 | 43.47584 | 11.63083 | 38926 ft | 475 kts | 143° |
| 2026-04-20 20:19 | 43.42459 | 11.68841 | 38924 ft | 475 kts | 144° |
| 2026-04-20 20:19 | 43.37326 | 11.74591 | 38929 ft | 475 kts | 144° |
| 2026-04-20 20:20 | 43.32208 | 11.80313 | 38935 ft | 476 kts | 144° |
| 2026-04-20 20:20 | 43.27104 | 11.86008 | 38935 ft | 475 kts | 144° |
| 2026-04-20 20:21 | 43.21978 | 11.91713 | 38934 ft | 475 kts | 144° |
| 2026-04-20 20:21 | 43.16860 | 11.97396 | 38939 ft | 476 kts | 144° |
| 2026-04-20 20:22 | 43.11711 | 12.03100 | 38941 ft | 476 kts | 144° |
| 2026-04-20 20:22 | 43.06584 | 12.08771 | 38943 ft | 476 kts | 144° |
| 2026-04-20 20:23 | 43.01442 | 12.14443 | 38944 ft | 475 kts | 144° |
| 2026-04-20 20:23 | 42.96303 | 12.20100 | 38944 ft | 475 kts | 144° |
| 2026-04-20 20:24 | 42.91179 | 12.25727 | 38946 ft | 475 kts | 144° |
| 2026-04-20 20:24 | 42.86035 | 12.31364 | 38945 ft | 474 kts | 144° |
| 2026-04-20 20:25 | 42.80917 | 12.36960 | 38948 ft | 474 kts | 144° |
| 2026-04-20 20:25 | 42.75763 | 12.42585 | 38951 ft | 474 kts | 144° |
| 2026-04-20 20:26 | 42.70640 | 12.48161 | 38953 ft | 475 kts | 144° |
| 2026-04-20 20:26 | 42.65494 | 12.53752 | 38956 ft | 475 kts | 144° |
| 2026-04-20 20:27 | 42.60344 | 12.59335 | 38962 ft | 475 kts | 144° |
| 2026-04-20 20:27 | 42.55196 | 12.64902 | 38964 ft | 475 kts | 144° |
| 2026-04-20 20:28 | 42.50029 | 12.70481 | 38975 ft | 475 kts | 144° |
| 2026-04-20 20:28 | 42.44890 | 12.76015 | 38981 ft | 475 kts | 144° |
| 2026-04-20 20:29 | 42.39706 | 12.81584 | 38990 ft | 474 kts | 144° |
| 2026-04-20 20:29 | 42.34551 | 12.87113 | 38995 ft | 474 kts | 144° |
| 2026-04-20 20:30 | 42.29395 | 12.92627 | 38999 ft | 475 kts | 144° |
| 2026-04-20 20:30 | 42.24218 | 12.98156 | 38999 ft | 475 kts | 144° |
| 2026-04-20 20:31 | 42.19038 | 13.03677 | 39000 ft | 474 kts | 144° |
| 2026-04-20 20:31 | 42.13869 | 13.09172 | 38996 ft | 474 kts | 144° |
| 2026-04-20 20:32 | 42.08703 | 13.14652 | 38997 ft | 474 kts | 144° |
| 2026-04-20 20:32 | 42.03531 | 13.20125 | 38997 ft | 475 kts | 144° |
| 2026-04-20 20:33 | 41.98363 | 13.25581 | 39003 ft | 475 kts | 144° |
| 2026-04-20 20:33 | 41.93175 | 13.31052 | 39001 ft | 475 kts | 144° |
| 2026-04-20 20:34 | 41.87958 | 13.36540 | 38996 ft | 474 kts | 144° |
| 2026-04-20 20:34 | 41.82784 | 13.41970 | 38986 ft | 474 kts | 144° |
| 2026-04-20 20:35 | 41.77598 | 13.47402 | 38993 ft | 475 kts | 144° |
| 2026-04-20 20:35 | 41.72416 | 13.52818 | 39011 ft | 474 kts | 144° |
| 2026-04-20 20:36 | 41.67212 | 13.58245 | 39005 ft | 475 kts | 144° |
| 2026-04-20 20:36 | 41.62003 | 13.63669 | 38994 ft | 474 kts | 144° |
| 2026-04-20 20:37 | 41.56823 | 13.69051 | 38994 ft | 474 kts | 145° |
| 2026-04-20 20:37 | 41.51622 | 13.74440 | 38982 ft | 473 kts | 145° |
| 2026-04-20 20:38 | 41.46419 | 13.79820 | 38970 ft | 474 kts | 145° |
| 2026-04-20 20:38 | 41.41230 | 13.85178 | 38983 ft | 474 kts | 145° |
| 2026-04-20 20:39 | 41.36005 | 13.90562 | 38976 ft | 474 kts | 145° |
| 2026-04-20 20:39 | 41.30824 | 13.95883 | 38975 ft | 474 kts | 146° |
| 2026-04-20 20:40 | 41.25414 | 14.00831 | 38982 ft | 471 kts | 150° |
| 2026-04-20 20:40 | 41.19934 | 14.05609 | 38984 ft | 470 kts | 150° |
| 2026-04-20 20:41 | 41.14483 | 14.10359 | 38988 ft | 471 kts | 150° |
| 2026-04-20 20:41 | 41.08980 | 14.15155 | 38997 ft | 471 kts | 150° |
| 2026-04-20 20:42 | 41.03533 | 14.19894 | 38990 ft | 470 kts | 150° |
| 2026-04-20 20:42 | 40.98067 | 14.24642 | 38996 ft | 469 kts | 150° |
| 2026-04-20 20:43 | 40.92625 | 14.29356 | 39003 ft | 470 kts | 150° |
| 2026-04-20 20:43 | 40.87160 | 14.34081 | 39006 ft | 470 kts | 150° |
| 2026-04-20 20:44 | 40.81700 | 14.38793 | 39004 ft | 471 kts | 150° |
| 2026-04-20 20:44 | 40.76226 | 14.43511 | 39005 ft | 470 kts | 150° |
| 2026-04-20 20:45 | 40.70764 | 14.48208 | 39002 ft | 470 kts | 150° |
| 2026-04-20 20:45 | 40.65302 | 14.52896 | 39003 ft | 469 kts | 150° |
| 2026-04-20 20:46 | 40.59833 | 14.57577 | 39007 ft | 469 kts | 150° |
| 2026-04-20 20:46 | 40.54387 | 14.62232 | 39010 ft | 470 kts | 150° |
| 2026-04-20 20:47 | 40.48886 | 14.66926 | 39010 ft | 469 kts | 150° |
| 2026-04-20 20:47 | 40.43426 | 14.71575 | 39012 ft | 469 kts | 150° |
| 2026-04-20 20:48 | 40.37944 | 14.76233 | 39013 ft | 469 kts | 150° |
| 2026-04-20 20:48 | 40.32482 | 14.80863 | 39011 ft | 469 kts | 150° |
| 2026-04-20 20:49 | 40.27013 | 14.85491 | 39007 ft | 469 kts | 150° |
| 2026-04-20 20:49 | 40.21563 | 14.90095 | 39014 ft | 468 kts | 150° |
| 2026-04-20 20:50 | 40.16080 | 14.94718 | 39019 ft | 468 kts | 150° |
| 2026-04-20 20:50 | 40.10626 | 14.99307 | 39019 ft | 468 kts | 150° |
| 2026-04-20 20:51 | 40.05160 | 15.03897 | 39020 ft | 467 kts | 150° |
| 2026-04-20 20:51 | 39.99702 | 15.08471 | 39006 ft | 466 kts | 150° |
| 2026-04-20 20:52 | 39.96986 | 15.10744 | 38741 ft | 461 kts | 150° |
| 2026-04-20 20:52 | 39.94300 | 15.12991 | 38186 ft | 461 kts | 150° |
| 2026-04-20 20:52 | 39.91629 | 15.15222 | 37605 ft | 459 kts | 150° |
| 2026-04-20 20:52 | 39.88919 | 15.17483 | 37023 ft | 456 kts | 150° |
| 2026-04-20 20:53 | 39.86259 | 15.19702 | 36373 ft | 455 kts | 150° |
| 2026-04-20 20:53 | 39.83588 | 15.21928 | 35842 ft | 456 kts | 150° |
| 2026-04-20 20:53 | 39.80925 | 15.24143 | 35305 ft | 456 kts | 150° |
| 2026-04-20 20:53 | 39.78289 | 15.26334 | 34751 ft | 456 kts | 150° |
| 2026-04-20 20:54 | 39.75612 | 15.28556 | 34131 ft | 457 kts | 150° |
| 2026-04-20 20:54 | 39.72939 | 15.30799 | 33465 ft | 458 kts | 148° |
| 2026-04-20 20:54 | 39.70362 | 15.33226 | 32872 ft | 458 kts | 144° |
| 2026-04-20 20:54 | 39.67944 | 15.35826 | 32406 ft | 454 kts | 141° |
| 2026-04-20 20:55 | 39.65546 | 15.38501 | 31912 ft | 450 kts | 141° |
| 2026-04-20 20:55 | 39.63203 | 15.41130 | 31413 ft | 447 kts | 141° |
| 2026-04-20 20:55 | 39.60867 | 15.43743 | 30917 ft | 443 kts | 141° |
| 2026-04-20 20:55 | 39.58545 | 15.46333 | 30424 ft | 439 kts | 141° |
| 2026-04-20 20:56 | 39.56247 | 15.48891 | 29899 ft | 436 kts | 141° |
| 2026-04-20 20:56 | 39.53962 | 15.51430 | 29405 ft | 432 kts | 141° |
| 2026-04-20 20:56 | 39.51710 | 15.53929 | 28908 ft | 428 kts | 141° |
| 2026-04-20 20:56 | 39.49446 | 15.56436 | 28391 ft | 425 kts | 141° |
| 2026-04-20 20:57 | 39.47213 | 15.58909 | 27878 ft | 422 kts | 141° |
| 2026-04-20 20:57 | 39.45020 | 15.61335 | 27373 ft | 419 kts | 141° |
| 2026-04-20 20:57 | 39.42817 | 15.63768 | 26880 ft | 415 kts | 141° |
| 2026-04-20 20:57 | 39.40618 | 15.66198 | 26374 ft | 412 kts | 141° |
| 2026-04-20 20:58 | 39.38445 | 15.68596 | 25871 ft | 409 kts | 141° |
| 2026-04-20 20:58 | 39.36291 | 15.70971 | 25362 ft | 406 kts | 141° |
| 2026-04-20 20:58 | 39.34182 | 15.73294 | 24880 ft | 403 kts | 141° |
| 2026-04-20 20:58 | 39.32046 | 15.75645 | 24397 ft | 400 kts | 141° |
| 2026-04-20 20:59 | 39.29961 | 15.77938 | 23926 ft | 397 kts | 141° |
| 2026-04-20 20:59 | 39.27857 | 15.80249 | 23452 ft | 393 kts | 141° |
| 2026-04-20 20:59 | 39.25773 | 15.82532 | 22997 ft | 390 kts | 141° |
| 2026-04-20 20:59 | 39.23721 | 15.84773 | 22527 ft | 387 kts | 141° |
| 2026-04-20 21:00 | 39.21666 | 15.87016 | 22058 ft | 384 kts | 141° |
| 2026-04-20 21:00 | 39.19681 | 15.89289 | 21595 ft | 382 kts | 137° |
| 2026-04-20 21:00 | 39.17799 | 15.91666 | 21139 ft | 380 kts | 136° |
| 2026-04-20 21:00 | 39.15927 | 15.94069 | 20683 ft | 377 kts | 136° |
| 2026-04-20 21:01 | 39.14093 | 15.96428 | 20226 ft | 374 kts | 136° |
| 2026-04-20 21:01 | 39.12258 | 15.98784 | 19762 ft | 372 kts | 136° |
| 2026-04-20 21:01 | 39.10420 | 16.01137 | 19317 ft | 369 kts | 136° |
| 2026-04-20 21:01 | 39.08621 | 16.03437 | 18878 ft | 367 kts | 136° |
| 2026-04-20 21:02 | 39.06810 | 16.05749 | 18414 ft | 364 kts | 136° |
| 2026-04-20 21:02 | 39.05024 | 16.08027 | 17952 ft | 363 kts | 136° |
| 2026-04-20 21:02 | 39.03228 | 16.10316 | 17486 ft | 361 kts | 136° |
| 2026-04-20 21:02 | 39.01454 | 16.12575 | 17022 ft | 360 kts | 136° |
| 2026-04-20 21:03 | 38.99691 | 16.14818 | 16561 ft | 358 kts | 136° |
| 2026-04-20 21:03 | 38.97934 | 16.17052 | 16091 ft | 356 kts | 136° |
| 2026-04-20 21:03 | 38.96176 | 16.19284 | 15630 ft | 355 kts | 136° |
| 2026-04-20 21:03 | 38.94430 | 16.21499 | 15178 ft | 352 kts | 136° |
| 2026-04-20 21:04 | 38.92697 | 16.23697 | 14749 ft | 350 kts | 136° |
| 2026-04-20 21:04 | 38.91022 | 16.25932 | 14307 ft | 347 kts | 130° |
| 2026-04-20 21:04 | 38.89607 | 16.28443 | 13840 ft | 346 kts | 121° |
| 2026-04-20 21:04 | 38.88419 | 16.31109 | 13348 ft | 344 kts | 118° |
| 2026-04-20 21:05 | 38.87282 | 16.33797 | 12840 ft | 343 kts | 118° |
| 2026-04-20 21:05 | 38.86155 | 16.36469 | 12328 ft | 342 kts | 118° |
| 2026-04-20 21:05 | 38.85032 | 16.39112 | 11832 ft | 340 kts | 118° |
| 2026-04-20 21:05 | 38.83887 | 16.41788 | 11325 ft | 338 kts | 118° |
| 2026-04-20 21:06 | 38.82756 | 16.44414 | 10817 ft | 337 kts | 118° |
| 2026-04-20 21:06 | 38.81641 | 16.46998 | 10575 ft | 326 kts | 118° |
| 2026-04-20 21:06 | 38.80570 | 16.49474 | 10566 ft | 308 kts | 118° |
| 2026-04-20 21:06 | 38.79565 | 16.51795 | 10517 ft | 293 kts | 118° |
| 2026-04-20 21:07 | 38.78712 | 16.54148 | 10155 ft | 287 kts | 108° |
| 2026-04-20 21:07 | 38.78230 | 16.56575 | 9793 ft | 280 kts | 98° |
| 2026-04-20 21:07 | 38.77928 | 16.59018 | 9425 ft | 275 kts | 96° |
| 2026-04-20 21:07 | 38.77715 | 16.61406 | 9058 ft | 272 kts | 86° |
| 2026-04-20 21:08 | 38.78238 | 16.63665 | 8677 ft | 264 kts | 51° |
| 2026-04-20 21:08 | 38.79628 | 16.65109 | 8311 ft | 255 kts | 19° |
| 2026-04-20 21:08 | 38.81321 | 16.65544 | 7949 ft | 250 kts | 360° |
| 2026-04-20 21:08 | 38.82992 | 16.65021 | 7522 ft | 247 kts | 328° |
| 2026-04-20 21:09 | 38.84220 | 16.63505 | 6828 ft | 255 kts | 301° |
| 2026-04-20 21:09 | 38.84841 | 16.61374 | 6095 ft | 261 kts | 286° |
| 2026-04-20 21:09 | 38.85308 | 16.59146 | 5359 ft | 262 kts | 287° |
| 2026-04-20 21:09 | 38.85794 | 16.56899 | 4617 ft | 263 kts | 287° |
| 2026-04-20 21:10 | 38.86289 | 16.54662 | 3943 ft | 260 kts | 288° |
| 2026-04-20 21:10 | 38.86774 | 16.52491 | 3554 ft | 247 kts | 289° |
| 2026-04-20 21:10 | 38.87264 | 16.50494 | 3462 ft | 223 kts | 288° |
| 2026-04-20 21:10 | 38.87618 | 16.48653 | 3416 ft | 202 kts | 285° |
| 2026-04-20 21:11 | 38.87883 | 16.46963 | 3299 ft | 187 kts | 283° |
| 2026-04-20 21:11 | 38.88096 | 16.45348 | 3034 ft | 178 kts | 282° |
| 2026-04-20 21:11 | 38.88276 | 16.43826 | 2800 ft | 164 kts | 282° |
| 2026-04-20 21:11 | 38.88434 | 16.42442 | 2559 ft | 154 kts | 282° |
| 2026-04-20 21:12 | 38.88581 | 16.41135 | 2345 ft | 141 kts | 282° |
| 2026-04-20 21:12 | 38.88716 | 16.39939 | 2139 ft | 131 kts | 283° |
| 2026-04-20 21:12 | 38.88849 | 16.38785 | 1979 ft | 129 kts | 282° |
| 2026-04-20 21:12 | 38.88981 | 16.37642 | 1828 ft | 129 kts | 282° |
| 2026-04-20 21:13 | 38.89112 | 16.36513 | 1670 ft | 129 kts | 282° |
| 2026-04-20 21:13 | 38.89243 | 16.35373 | 1515 ft | 128 kts | 282° |
| 2026-04-20 21:13 | 38.89374 | 16.34240 | 1347 ft | 128 kts | 281° |
| 2026-04-20 21:13 | 38.89504 | 16.33116 | 1177 ft | 128 kts | 281° |
| 2026-04-20 21:14 | 38.89635 | 16.31990 | 1002 ft | 127 kts | 280° |
| 2026-04-20 21:14 | 38.89764 | 16.30880 | 833 ft | 127 kts | 279° |
| 2026-04-20 21:14 | 38.89896 | 16.29755 | 658 ft | 127 kts | 279° |
| 2026-04-20 21:14 | 38.90025 | 16.28637 | 493 ft | 126 kts | 279° |
| 2026-04-20 21:15 | 38.90155 | 16.27520 | 324 ft | 126 kts | 278° |
| 2026-04-20 21:15 | 38.90287 | 16.26424 | 155 ft | 124 kts | 278° |
| 2026-04-20 21:15 | 38.90412 | 16.25343 | 42 ft | 117 kts | 277° |
| 2026-04-20 21:15 | 38.90509 | 16.24473 | 31 ft | 74 kts | 278° |
| 2026-04-20 21:16 | 38.90564 | 16.24010 | 27 ft | 40 kts | 279° |
| 2026-04-20 21:16 | 38.90600 | 16.23755 | 25 ft | 21 kts | 285° |
| 2026-04-20 21:16 | 38.90664 | 16.23602 | 23 ft | 18 kts | 309° |
| 2026-04-20 21:16 | 38.90739 | 16.23494 | 23 ft | 11 kts | 328° |
| 2026-04-20 21:17 | 38.90815 | 16.23500 | 25 ft | 11 kts | 31° |
| 2026-04-20 21:17 | 38.90837 | 16.23597 | 26 ft | 12 kts | 98° |
| 2026-04-20 21:17 | 38.90822 | 16.23719 | 26 ft | 14 kts | 98° |
| 2026-04-20 21:17 | 38.90806 | 16.23856 | 27 ft | 16 kts | 98° |
| 2026-04-20 21:18 | 38.90789 | 16.24002 | 29 ft | 17 kts | 98° |
| 2026-04-20 21:18 | 38.90777 | 16.24149 | 31 ft | 14 kts | 77° |
| 2026-04-20 21:18 | 38.90819 | 16.24232 | 34 ft | 10 kts | 54° |
| 2026-04-20 21:18 | 38.90826 | 16.24309 | 35 ft | 10 kts | 98° |
| 2026-04-20 21:19 | 38.90816 | 16.24399 | 36 ft | 8 kts | 96° |
| 2026-04-20 21:19 | 38.90846 | 16.24437 | 36 ft | 6 kts | 7° |
| 2026-04-20 21:19 | 38.90866 | 16.24442 | 36 ft | 1 kts | 32° |
| 2026-04-20 21:20 | 38.90874 | 16.24452 | 37 ft | 0 kts | 43° |